Richmond, VA

4:11 PM EDT on August 30, 2015 (GMT -0400)
University Hts. | | Change Station
CLOSE
Current Station
Personal Weather Station
Location: Richmond, VA
Elevation: 276 ft
Nearby Weather Stations

Elev 276 ft 37.59 °N, 77.56 °W | Updated 3 seconds ago

Partly Cloudy
Partly Cloudy
87.5 °F
Feels Like 90 °F
N
0.4
Wind Variable Wind from SW
Gusts 0.4 mph

Today
High -- | Low -- °F
--% Chance of Precip.
Yesterday
High -- | Low -- °F
Precip. -- in
6:38 AM 7:42 PM
Full, 98% visible
Pressure 30.10 in
Visibility 10.0 miles
Clouds Few 4500 ft
Mostly Cloudy 15000 ft
Mostly Cloudy 25000 ft
Heat Index 90 °F
Dew Point 67 °F
Humidity 50%
Rainfall 0.00 in
Snow Depth Not available.
UV 3 out of 12
Pollen 9.10 out of 12
Air Quality Not available.
Flu Activity Not available.
METAR KRIC 301954Z 18009KT 10SM FEW045 BKN150 BKN250 31/16 A3009 RMK AO2 SLP192 T03110156
Pressure 30.10 in
Visibility 10.0 miles
Clouds Few 4500 ft
Mostly Cloudy 15000 ft
Mostly Cloudy 25000 ft
Heat Index 90 °F
Dew Point 67 °F
Humidity 50%
Rainfall 0.00 in
Snow Depth Not available.
UV 3 out of 12
Pollen 9.10 out of 12
Air Quality Not available.
Flu Activity Not available.
METAR KRIC 301954Z 18009KT 10SM FEW045 BKN150 BKN250 31/16 A3009 RMK AO2 SLP192 T03110156

10-Day Weather Forecast

×

Almanac

Astronomy

Aug. 30, 2015 Rise Set
Actual Time
Civil Twilight
Nautical Twilight
Astronomical Twilight
Moon
Length of Visible Light
Length of Day
Tomorrow will be .
, % of the Moon is Illuminated

Today's Extremes

State Highs State Lows

Community

WunderPhotos

Upload Photos

1,851,048 photos uploaded!

WunderBlogs® & News

Nearby

Air Quality

  Air Quality AQ Index Pollutant
Not available.

Snow Depth

Station Depth Elevation

Earthquake Activity

City Distance Mag. Time & Date
Minimum magnitude displayed is 2.5.

Coastal Water Temperatures

Place Temperature

Stations

Nearby Weather Stations

Station Location Temp. Windchill Dew Point Humidity Wind Precip. Elev Updated Type